Time;durP1;ratioP1;P1;durP2;ratioP2;P2;SDS_P1;SDS_P2;PMS_P1;PMS_P2;Temp;Humidity;BMP_temperature;BMP_pressure;BME280_temperature;BME280_humidity;BME280_pressure;Samples;Min_cycle;Max_cycle;Signal;HPM_P1;HPM_P2
2020/12/25 00:01:27;;;;;;;26.63;11.93;;;;;;;7.42;65.07;93616.16;5009119;28;20025;-75
2020/12/25 00:03:55;;;;;;;34.42;12.52;;;;;;;7.35;65.33;93611.25;5008777;28;20018;-75
2020/12/25 00:06:21;;;;;;;23.23;11.57;;;;;;;7.31;65.52;93594.38;5009085;28;20026;-75
2020/12/25 00:08:47;;;;;;;26.95;12.65;;;;;;;7.30;65.74;93598.09;5010439;28;20032;-75
2020/12/25 00:11:12;;;;;;;25.92;12.00;;;;;;;7.26;65.63;93591.06;5013996;28;20061;-75
2020/12/25 00:13:38;;;;;;;26.70;13.13;;;;;;;7.22;66.43;93591.66;5012857;28;20032;-75
2020/12/25 00:16:03;;;;;;;27.95;12.60;;;;;;;7.23;66.04;93595.88;5013734;28;20080;-75
2020/12/25 00:18:29;;;;;;;31.85;14.43;;;;;;;7.21;66.09;93602.56;5012501;28;20497;-75
2020/12/25 00:20:54;;;;;;;28.13;14.32;;;;;;;7.21;65.88;93607.84;5013849;28;20056;-75
2020/12/25 00:23:20;;;;;;;27.63;13.55;;;;;;;7.15;65.84;93606.41;5012425;28;20026;-75
2020/12/25 00:25:46;;;;;;;26.83;13.38;;;;;;;7.09;66.21;93597.75;5013528;28;20068;-75
2020/12/25 00:28:13;;;;;;;22.98;12.88;;;;;;;7.08;66.42;93613.94;5013654;28;20400;-75
2020/12/25 00:30:44;;;;;;;27.02;11.88;;;;;;;7.10;66.51;93615.22;5012435;28;20034;-75
2020/12/25 00:33:11;;;;;;;29.63;10.93;;;;;;;7.10;66.54;93619.72;5013876;28;20048;-75
2020/12/25 00:35:37;;;;;;;25.70;11.10;;;;;;;7.13;66.54;93624.47;5012278;28;20164;-75
2020/12/25 00:38:02;;;;;;;22.73;11.45;;;;;;;7.12;66.53;93628.19;5013549;28;20501;-75
2020/12/25 00:40:28;;;;;;;25.08;11.57;;;;;;;7.09;66.46;93623.47;5012250;28;20028;-75
2020/12/25 00:42:54;;;;;;;23.42;11.30;;;;;;;7.11;66.57;93624.75;5011894;28;20417;-76
2020/12/25 00:45:19;;;;;;;26.42;12.15;;;;;;;7.08;66.40;93627.19;5012201;28;20026;-75
2020/12/25 00:47:45;;;;;;;23.00;11.50;;;;;;;7.01;66.69;93611.69;5011938;28;20103;-76
2020/12/25 00:50:11;;;;;;;25.98;11.43;;;;;;;7.00;66.78;93610.94;5013345;28;20049;-76
2020/12/25 00:52:37;;;;;;;29.20;13.70;;;;;;;6.99;66.78;93604.03;5012027;28;20498;-75
2020/12/25 00:55:03;;;;;;;23.10;11.63;;;;;;;6.98;66.75;93609.63;5011795;28;20030;-76
2020/12/25 00:57:28;;;;;;;23.48;11.65;;;;;;;7.02;66.87;93623.84;5011907;28;20022;-76
2020/12/25 00:59:54;;;;;;;22.90;11.45;;;;;;;7.04;66.60;93627.00;5011634;28;20029;-76
2020/12/25 01:02:19;;;;;;;26.40;12.15;;;;;;;7.01;66.78;93612.47;5012864;28;20025;-76
2020/12/25 01:04:45;;;;;;;21.15;11.40;;;;;;;7.05;66.75;93633.09;5011672;28;20028;-75
2020/12/25 01:07:10;;;;;;;23.58;12.07;;;;;;;7.03;66.41;93612.19;5012850;28;20049;-75
2020/12/25 01:09:36;;;;;;;21.65;10.25;;;;;;;7.03;66.45;93610.31;5011618;28;20490;-75
2020/12/25 01:12:02;;;;;;;26.40;11.35;;;;;;;7.05;66.43;93625.16;5011364;28;20516;-76
2020/12/25 01:14:28;;;;;;;24.52;11.30;;;;;;;7.02;66.25;93616.72;5012767;28;20407;-75
2020/12/25 01:16:55;;;;;;;20.00;10.32;;;;;;;6.99;66.37;93622.59;5011400;28;20057;-75
2020/12/25 01:19:27;;;;;;;28.67;12.40;;;;;;;6.90;66.58;93616.44;5010843;28;20087;-75
2020/12/25 01:21:53;;;;;;;21.23;10.43;;;;;;;6.90;66.83;93602.38;5011163;28;20482;-75
2020/12/25 01:24:18;;;;;;;28.52;10.90;;;;;;;6.91;66.87;93599.44;5012435;28;20100;-75
2020/12/25 01:26:45;;;;;;;21.77;10.60;;;;;;;6.85;66.74;93590.03;5012709;28;20026;-76
2020/12/25 01:29:11;;;;;;;24.02;10.25;;;;;;;6.75;67.21;93593.66;5011234;28;20072;-75
2020/12/25 01:31:36;;;;;;;26.23;11.35;;;;;;;6.80;67.16;93582.97;5012713;28;20049;-75
2020/12/25 01:34:03;;;;;;;28.98;11.95;;;;;;;6.84;67.38;93575.22;5010877;28;20026;-76
2020/12/25 01:36:28;;;;;;;25.73;11.10;;;;;;;6.87;67.28;93584.44;5011076;28;20092;-75
2020/12/25 01:38:54;;;;;;;33.22;12.55;;;;;;;6.92;67.21;93579.81;5011063;28;20025;-75
2020/12/25 01:41:20;;;;;;;19.33;9.95;;;;;;;6.94;67.33;93569.72;5010877;28;20026;-75
2020/12/25 01:43:45;;;;;;;19.90;10.60;;;;;;;6.94;66.94;93575.03;5010949;28;20056;-75
2020/12/25 01:46:12;;;;;;;25.02;10.35;;;;;;;6.98;66.90;93580.50;5011834;28;20034;-75
2020/12/25 01:48:38;;;;;;;20.33;9.45;;;;;;;7.03;66.70;93567.16;5011002;28;20432;-74
2020/12/25 01:51:06;;;;;;;20.98;9.65;;;;;;;7.05;66.67;93578.22;5010647;28;20031;-76
2020/12/25 01:53:33;;;;;;;18.25;9.32;;;;;;;7.05;66.35;93585.41;5010738;28;20026;-76
2020/12/25 01:56:00;;;;;;;22.70;10.52;;;;;;;7.01;66.43;93582.56;5011916;28;20057;-75
2020/12/25 01:58:27;;;;;;;23.00;11.00;;;;;;;6.98;66.67;93572.53;5011782;28;20519;-75
2020/12/25 02:00:52;;;;;;;23.75;10.15;;;;;;;6.97;66.66;93586.88;5011878;28;20022;-75
2020/12/25 02:03:18;;;;;;;18.90;9.13;;;;;;;6.98;66.68;93573.34;5010515;28;20021;-75
2020/12/25 02:05:45;;;;;;;20.00;9.32;;;;;;;6.98;66.56;93570.69;5010769;28;20024;-75
2020/12/25 02:08:11;;;;;;;18.88;9.65;;;;;;;6.97;66.76;93563.81;5010415;28;20030;-76
2020/12/25 02:10:38;;;;;;;21.67;10.77;;;;;;;6.99;66.81;93566.16;5010555;28;20026;-75
2020/12/25 02:13:05;;;;;;;21.63;9.90;;;;;;;7.02;66.32;93576.16;5010350;28;20485;-75
2020/12/25 02:15:31;;;;;;;26.27;11.82;;;;;;;6.95;66.40;93565.97;5010065;28;20405;-75
2020/12/25 02:17:56;;;;;;;23.42;11.05;;;;;;;6.93;66.52;93573.44;5011786;28;20037;-76
2020/12/25 02:20:22;;;;;;;26.20;9.80;;;;;;;6.88;66.63;93560.31;5011471;28;20033;-76
2020/12/25 02:22:47;;;;;;;21.75;9.90;;;;;;;6.83;66.83;93563.03;5010528;28;20030;-75
2020/12/25 02:25:12;;;;;;;19.92;10.50;;;;;;;6.80;66.75;93555.72;5011428;28;20022;-75
2020/12/25 02:27:38;;;;;;;20.55;10.45;;;;;;;6.79;67.03;93556.78;5011495;28;20028;-76
2020/12/25 02:30:05;;;;;;;27.95;11.35;;;;;;;6.77;66.84;93564.22;5010118;28;20036;-75
2020/12/25 02:32:31;;;;;;;25.95;11.23;;;;;;;6.68;67.36;93564.16;5009783;28;20377;-75
2020/12/25 02:34:56;;;;;;;23.23;10.95;;;;;;;6.72;67.17;93578.38;5010070;28;20033;-75
2020/12/25 02:37:23;;;;;;;25.52;11.30;;;;;;;6.73;66.71;93564.03;5010224;28;20409;-75
2020/12/25 02:39:48;;;;;;;22.98;10.10;;;;;;;6.66;67.14;93568.19;5011223;28;20590;-75
2020/12/25 02:42:14;;;;;;;22.67;10.85;;;;;;;6.59;67.30;93579.13;5009715;28;20033;-75
2020/12/25 02:44:39;;;;;;;23.38;10.18;;;;;;;6.56;67.16;93585.81;5010804;28;20032;-75
2020/12/25 02:47:05;;;;;;;21.25;10.95;;;;;;;6.51;67.43;93572.66;5011188;28;20476;-75
2020/12/25 02:49:31;;;;;;;22.83;10.82;;;;;;;6.45;67.62;93565.13;5010864;28;20385;-75
2020/12/25 02:51:56;;;;;;;21.17;11.30;;;;;;;6.38;67.59;93562.88;5011102;28;20105;-75
2020/12/25 02:54:22;;;;;;;22.13;12.15;;;;;;;6.29;68.09;93540.78;5009553;28;20034;-75
2020/12/25 02:56:47;;;;;;;22.08;11.18;;;;;;;6.19;67.98;93550.50;5009627;28;20042;-75
2020/12/25 02:59:13;;;;;;;21.10;9.57;;;;;;;5.91;70.18;93541.69;5010950;28;20033;-75
2020/12/25 03:01:38;;;;;;;21.10;11.45;;;;;;;5.96;69.96;93532.91;5009478;28;20505;-76
2020/12/25 03:04:04;;;;;;;22.23;11.32;;;;;;;6.00;69.86;93544.47;5010991;28;20500;-75
2020/12/25 03:06:29;;;;;;;23.63;11.00;;;;;;;5.99;69.77;93521.75;5009564;28;20120;-75
2020/12/25 03:08:54;;;;;;;25.48;11.90;;;;;;;6.05;69.12;93528.53;5009541;28;20461;-75
2020/12/25 03:11:20;;;;;;;23.50;11.30;;;;;;;6.08;68.76;93522.66;5009785;28;20025;-75
2020/12/25 03:13:45;;;;;;;29.92;11.68;;;;;;;6.09;68.93;93523.44;5006447;28;20379;-75
2020/12/25 03:16:11;;;;;;;25.45;10.95;;;;;;;6.10;69.05;93517.84;5009551;28;20041;-75
2020/12/25 03:18:36;;;;;;;27.50;11.85;;;;;;;6.14;68.91;93526.75;5009126;28;20037;-75
2020/12/25 03:21:02;;;;;;;28.20;11.55;;;;;;;6.01;68.73;93532.84;5009465;28;20044;-76
2020/12/25 03:23:28;;;;;;;24.02;10.10;;;;;;;6.00;69.39;93531.25;5009277;28;20545;-75
2020/12/25 03:25:53;;;;;;;24.23;11.15;;;;;;;6.00;69.67;93537.34;5009358;28;20133;-75
2020/12/25 03:28:19;;;;;;;24.02;11.98;;;;;;;5.97;69.54;93531.84;5009324;28;20080;-75
2020/12/25 03:30:44;;;;;;;21.02;9.85;;;;;;;5.95;69.10;93528.72;5009031;28;20490;-75
2020/12/25 03:33:10;;;;;;;19.73;10.73;;;;;;;5.98;69.25;93522.81;5009345;28;20026;-75
2020/12/25 03:35:35;;;;;;;21.42;10.15;;;;;;;6.00;68.95;93525.97;5010294;28;20061;-76
2020/12/25 03:38:00;;;;;;;20.85;10.30;;;;;;;5.91;69.41;93520.53;5009204;28;20040;-75
2020/12/25 03:40:27;;;;;;;19.80;9.07;;;;;;;5.92;69.77;93519.47;5009181;28;20040;-75
2020/12/25 03:42:53;;;;;;;16.00;9.18;;;;;;;5.97;69.51;93516.75;5009307;28;20045;-75
2020/12/25 03:45:18;;;;;;;19.05;9.80;;;;;;;5.96;69.53;93519.69;5014393;28;20104;-75
2020/12/25 03:47:44;;;;;;;21.13;8.95;;;;;;;5.97;69.62;93513.34;5014358;28;20492;-75
2020/12/25 03:50:09;;;;;;;19.23;9.00;;;;;;;6.03;69.41;93506.88;5013164;28;20451;-75
2020/12/25 03:52:35;;;;;;;19.85;8.65;;;;;;;6.09;69.38;93507.56;5012960;28;20030;-75
2020/12/25 03:55:02;;;;;;;17.13;8.48;;;;;;;6.14;69.25;93505.59;5012730;28;20026;-75
2020/12/25 03:57:27;;;;;;;16.35;7.32;;;;;;;6.13;69.07;93504.03;5012885;28;20029;-75
2020/12/25 03:59:53;;;;;;;18.98;7.82;;;;;;;6.15;69.16;93501.88;5012697;28;20036;-75
2020/12/25 04:02:18;;;;;;;23.75;9.43;;;;;;;6.22;68.85;93493.56;5012949;28;20405;-75
2020/12/25 04:04:44;;;;;;;18.75;9.10;;;;;;;6.20;68.89;93490.41;5012571;28;20029;-75
2020/12/25 04:07:09;;;;;;;19.05;8.82;;;;;;;6.23;68.79;93482.69;5013956;28;20037;-75
2020/12/25 04:09:35;;;;;;;20.95;9.07;;;;;;;6.28;68.11;93508.25;5012618;28;20412;-75
2020/12/25 04:12:00;;;;;;;21.20;9.20;;;;;;;5.97;69.14;93505.41;5013707;28;20038;-75
2020/12/25 04:14:25;;;;;;;20.65;9.07;;;;;;;5.86;69.57;93504.75;5012614;28;20030;-75
2020/12/25 04:16:51;;;;;;;15.27;8.57;;;;;;;5.90;69.68;93520.81;5012457;28;20025;-75
2020/12/25 04:19:16;;;;;;;22.27;8.10;;;;;;;5.88;69.49;93521.09;5013858;28;20505;-75
2020/12/25 04:21:42;;;;;;;19.63;9.30;;;;;;;5.89;69.75;93516.63;5012490;28;20481;-74
2020/12/25 04:24:07;;;;;;;19.27;8.40;;;;;;;5.89;69.62;93527.97;5012389;28;20025;-75
2020/12/25 04:26:33;;;;;;;17.15;9.73;;;;;;;5.90;69.40;93516.31;5013553;28;20111;-75
2020/12/25 04:28:59;;;;;;;18.38;9.52;;;;;;;5.92;68.92;93529.25;5012112;28;20018;-75
2020/12/25 04:31:25;;;;;;;18.60;9.80;;;;;;;5.88;69.15;93525.63;5013868;28;20022;-75
2020/12/25 04:33:51;;;;;;;18.90;9.65;;;;;;;5.87;69.39;93508.97;5011947;28;20061;-75
2020/12/25 04:36:18;;;;;;;17.83;9.00;;;;;;;5.88;69.32;93515.81;5013497;28;20030;-75
2020/12/25 04:38:43;;;;;;;19.48;9.02;;;;;;;5.89;69.56;93521.91;5013420;28;20076;-74
2020/12/25 04:41:09;;;;;;;19.40;8.27;;;;;;;5.89;69.59;93525.34;5013194;28;20037;-75
2020/12/25 04:43:38;;;;;;;22.75;9.07;;;;;;;5.91;69.45;93528.47;5013377;28;20088;-75
2020/12/25 04:46:04;;;;;;;25.80;10.07;;;;;;;5.91;69.36;93523.19;5011874;28;20125;-75
2020/12/25 04:48:29;;;;;;;22.88;9.82;;;;;;;5.98;69.25;93525.47;5011874;28;20127;-75
2020/12/25 04:50:55;;;;;;;20.13;9.85;;;;;;;6.01;69.28;93519.63;5011985;28;20026;-75
2020/12/25 04:53:21;;;;;;;23.77;10.55;;;;;;;5.98;69.49;93528.94;5013041;28;20032;-75
2020/12/25 04:55:46;;;;;;;22.23;10.65;;;;;;;6.02;69.29;93519.31;5011723;28;20034;-75
2020/12/25 04:58:12;;;;;;;24.50;11.43;;;;;;;6.07;69.03;93518.44;5011479;28;20037;-75
2020/12/25 05:00:37;;;;;;;19.58;9.23;;;;;;;6.13;69.01;93524.44;5011825;28;20103;-75
2020/12/25 05:03:06;;;;;;;21.35;10.00;;;;;;;6.14;68.94;93524.13;5011798;28;20493;-75
2020/12/25 05:05:32;;;;;;;20.00;9.80;;;;;;;6.13;68.96;93522.56;5013047;28;20018;-75
2020/12/25 05:07:59;;;;;;;16.58;8.30;;;;;;;6.14;68.73;93524.13;5011689;28;20464;-75
2020/12/25 05:10:25;;;;;;;20.80;9.05;;;;;;;6.16;68.55;93529.91;5011316;28;20084;-75
2020/12/25 05:12:52;;;;;;;22.38;10.88;;;;;;;6.17;68.38;93523.53;5011735;28;20485;-75
2020/12/25 05:15:17;;;;;;;20.05;9.43;;;;;;;6.09;68.37;93539.31;5011248;28;20046;-75
2020/12/25 05:17:43;;;;;;;19.83;9.68;;;;;;;6.10;68.83;93549.59;5011448;28;20036;-75
2020/12/25 05:20:09;;;;;;;21.10;9.65;;;;;;;6.07;68.45;93552.84;5011183;28;20026;-75
2020/12/25 05:22:35;;;;;;;18.30;9.20;;;;;;;6.05;68.70;93543.63;5011346;28;20033;-75
2020/12/25 05:25:04;;;;;;;16.88;8.43;;;;;;;6.05;68.48;93544.41;5011278;28;20054;-75
2020/12/25 05:27:30;;;;;;;19.08;9.57;;;;;;;6.01;69.15;93543.41;5011231;28;20029;-75
2020/12/25 05:30:05;;;;;;;23.42;9.15;;;;;;;5.98;69.07;93534.22;5012507;28;20017;-75
2020/12/25 05:32:34;;;;;;;21.88;8.80;;;;;;;6.01;69.09;93532.84;5011162;28;20398;-75
2020/12/25 05:34:59;;;;;;;19.85;9.63;;;;;;;6.03;69.08;93528.03;5012500;28;20022;-75
2020/12/25 05:37:36;;;;;;;18.08;8.57;;;;;;;6.02;68.85;93527.25;5012103;28;20100;-75
2020/12/25 05:40:04;;;;;;;18.52;9.10;;;;;;;6.01;68.80;93528.31;5012403;28;20033;-75
2020/12/25 05:42:44;;;;;;;18.00;9.65;;;;;;;6.02;68.97;93523.81;5010930;28;20483;-75
2020/12/25 05:45:09;;;;;;;18.58;8.95;;;;;;;6.04;68.86;93516.38;5010953;28;20093;-75
2020/12/25 05:47:35;;;;;;;17.15;9.05;;;;;;;6.02;68.98;93521.16;5010869;28;20030;-75
2020/12/25 05:50:00;;;;;;;17.88;9.57;;;;;;;5.97;69.33;93515.97;5010961;28;20124;-75
2020/12/25 05:52:26;;;;;;;18.80;9.30;;;;;;;6.04;68.73;93519.00;5011971;28;20025;-75
2020/12/25 05:54:53;;;;;;;23.58;10.45;;;;;;;6.08;68.79;93527.16;5010652;28;20444;-75
2020/12/25 05:57:20;;;;;;;22.35;9.73;;;;;;;6.05;68.87;93531.19;5010514;28;20022;-76
2020/12/25 05:59:47;;;;;;;21.40;10.18;;;;;;;6.03;68.80;93533.34;5010719;28;20030;-76
2020/12/25 06:02:15;;;;;;;19.33;9.65;;;;;;;6.03;68.92;93546.56;5010579;28;20464;-75
2020/12/25 06:04:41;;;;;;;20.15;10.38;;;;;;;5.91;69.32;93546.22;5010257;28;20032;-75
2020/12/25 06:07:10;;;;;;;19.70;9.20;;;;;;;5.96;69.03;93546.16;5011381;28;20033;-75
2020/12/25 06:09:41;;;;;;;18.33;9.40;;;;;;;6.00;68.92;93555.06;5010501;28;20026;-75
2020/12/25 06:12:08;;;;;;;20.70;10.63;;;;;;;6.07;68.56;93563.44;5010533;28;20030;-75
2020/12/25 06:14:33;;;;;;;25.05;10.35;;;;;;;6.07;68.73;93557.34;5010256;28;20060;-75
2020/12/25 06:16:59;;;;;;;23.08;10.25;;;;;;;6.03;68.88;93559.78;5010515;28;20034;-76
2020/12/25 06:19:33;;;;;;;20.45;10.20;;;;;;;6.05;68.96;93557.63;5010058;28;20038;-75
2020/12/25 06:22:01;;;;;;;20.70;9.20;;;;;;;6.12;68.97;93568.59;5010320;28;20496;-76
2020/12/25 06:24:34;;;;;;;17.27;8.82;;;;;;;6.10;68.88;93567.34;5009939;28;20040;-76
2020/12/25 06:27:01;;;;;;;17.90;8.68;;;;;;;6.12;68.90;93581.84;5010237;28;20569;-75
2020/12/25 06:29:28;;;;;;;20.02;10.07;;;;;;;6.04;69.14;93587.81;5011249;28;20134;-75
2020/12/25 06:31:57;;;;;;;17.70;8.50;;;;;;;6.02;69.15;93585.47;5010058;28;20030;-75
2020/12/25 06:34:39;;;;;;;20.30;8.65;;;;;;;5.99;69.46;93593.19;5009945;28;20061;-75
2020/12/25 06:37:11;;;;;;;17.38;8.18;;;;;;;5.98;69.48;93588.97;5001082;28;20116;-75
2020/12/25 06:39:36;;;;;;;16.60;7.38;;;;;;;5.96;69.33;93594.56;5009835;28;20037;-75
2020/12/25 06:42:02;;;;;;;20.77;7.90;;;;;;;5.98;69.53;93592.41;5010052;28;20034;-75
2020/12/25 06:44:29;;;;;;;18.90;8.30;;;;;;;6.07;69.23;93589.09;5009448;28;20058;-75
2020/12/25 06:47:01;;;;;;;17.13;8.32;;;;;;;6.15;69.08;93591.09;5009774;28;20021;-75
2020/12/25 06:49:34;;;;;;;15.50;7.80;;;;;;;6.25;68.77;93582.16;5009520;28;20054;-76
2020/12/25 06:52:00;;;;;;;18.17;7.40;;;;;;;6.37;68.05;93585.09;5009852;28;20034;-75
2020/12/25 06:54:26;;;;;;;15.45;7.97;;;;;;;6.45;68.26;93579.13;5010896;28;20033;-75
2020/12/25 06:56:53;;;;;;;23.25;9.00;;;;;;;6.53;68.09;93585.63;5009498;28;20029;-75
2020/12/25 06:59:21;;;;;;;24.40;11.63;;;;;;;6.59;68.06;93577.31;5010992;28;20087;-75
2020/12/25 07:01:48;;;;;;;27.30;13.35;;;;;;;6.66;67.90;93584.06;5009442;28;20044;-75
2020/12/25 07:04:27;;;;;;;23.63;11.18;;;;;;;6.64;67.73;93560.53;5010227;28;20103;-78
2020/12/25 07:07:03;;;;;;;26.45;12.07;;;;;;;6.70;67.62;93547.97;5010337;28;20472;-78
2020/12/25 07:09:42;;;;;;;22.65;11.07;;;;;;;6.70;67.54;93574.44;5010495;28;20045;-78
2020/12/25 07:12:12;;;;;;;19.48;10.73;;;;;;;6.70;67.94;93558.56;5010550;28;20021;-78
2020/12/25 07:14:38;;;;;;;22.88;12.77;;;;;;;6.76;67.95;93554.72;5010174;28;20482;-78
2020/12/25 07:17:04;;;;;;;26.83;12.48;;;;;;;6.88;67.65;93578.03;5010023;28;20044;-78
2020/12/25 07:19:29;;;;;;;27.15;14.15;;;;;;;6.95;67.48;93568.63;5009929;28;20033;-78
2020/12/25 07:21:55;;;;;;;31.92;15.23;;;;;;;7.06;67.11;93557.81;5010306;28;20040;-78
2020/12/25 07:24:20;;;;;;;30.00;14.82;;;;;;;7.12;67.23;93543.38;5011683;28;20034;-78
2020/12/25 07:26:47;;;;;;;29.70;13.27;;;;;;;7.18;66.93;93558.06;5010100;28;20033;-78
2020/12/25 07:29:14;;;;;;;28.63;12.77;;;;;;;7.22;67.05;93556.41;5010302;28;20216;-78
2020/12/25 07:31:51;;;;;;;27.05;13.10;;;;;;;7.33;66.96;93575.53;5010160;28;20069;-78
2020/12/25 07:34:25;;;;;;;30.25;12.60;;;;;;;7.40;66.81;93568.72;5010463;28;20053;-78
2020/12/25 07:36:52;;;;;;;25.40;12.90;;;;;;;7.53;66.16;93568.97;5010534;28;20026;-78
2020/12/25 07:39:19;;;;;;;25.10;11.40;;;;;;;7.66;65.29;93577.97;5010319;28;20033;-78
2020/12/25 07:41:45;;;;;;;28.35;11.68;;;;;;;7.72;64.92;93561.63;5010103;28;20026;-78
2020/12/25 07:44:10;;;;;;;24.10;11.00;;;;;;;7.79;64.82;93567.28;5010036;28;20049;-78
2020/12/25 07:46:37;;;;;;;20.70;10.02;;;;;;;7.84;64.73;93590.28;5010203;28;20026;-78
2020/12/25 07:49:05;;;;;;;35.00;15.35;;;;;;;7.81;65.46;93575.72;5011684;28;20057;-78
2020/12/25 07:51:31;;;;;;;33.80;15.90;;;;;;;7.86;64.70;93595.25;5010115;28;20029;-78
2020/12/25 07:53:58;;;;;;;32.95;16.48;;;;;;;7.71;64.85;93585.78;5009963;28;20045;-78
2020/12/25 07:56:35;;;;;;;27.52;15.63;;;;;;;7.67;65.47;93588.25;5010188;28;20038;-78
2020/12/25 07:59:04;;;;;;;30.88;14.30;;;;;;;7.70;65.19;93594.84;5009880;28;20593;-78
2020/12/25 08:01:33;;;;;;;27.40;13.57;;;;;;;7.73;64.86;93586.28;5010088;28;20030;-78
2020/12/25 08:04:00;;;;;;;24.63;13.18;;;;;;;7.57;65.03;93613.16;5011278;28;20022;-78
2020/12/25 08:06:28;;;;;;;33.65;15.40;;;;;;;7.57;65.52;93585.84;5010164;28;20030;-78
2020/12/25 08:09:04;;;;;;;29.73;13.60;;;;;;;7.66;65.62;93586.69;5009852;28;20030;-78
2020/12/25 08:11:31;;;;;;;25.25;12.43;;;;;;;7.72;65.58;93604.06;5009913;28;20041;-78
2020/12/25 08:14:02;;;;;;;25.23;11.65;;;;;;;7.75;64.92;93587.53;5010939;28;20026;-78
2020/12/25 08:16:30;;;;;;;24.77;12.75;;;;;;;7.82;65.01;93595.09;5009879;28;20022;-78
2020/12/25 08:18:56;;;;;;;24.58;12.23;;;;;;;7.93;65.23;93595.63;5009623;28;20028;-78
2020/12/25 08:21:21;;;;;;;28.80;14.98;;;;;;;8.04;65.19;93576.50;5009724;28;20038;-78
2020/12/25 08:23:47;;;;;;;26.60;14.40;;;;;;;8.17;65.02;93576.72;5009737;28;20072;-78
2020/12/25 08:26:13;;;;;;;31.35;15.20;;;;;;;8.32;64.58;93596.78;5009653;28;20092;-78
2020/12/25 08:28:43;;;;;;;35.00;16.85;;;;;;;8.41;64.37;93587.03;5009680;28;20026;-78
2020/12/25 08:31:16;;;;;;;36.65;17.60;;;;;;;8.51;63.76;93594.75;5014291;28;20022;-78
2020/12/25 08:33:53;;;;;;;37.85;17.75;;;;;;;8.59;63.91;93583.38;5014570;28;20022;-78
2020/12/25 08:36:18;;;;;;;36.08;18.40;;;;;;;8.68;63.98;93591.34;5012972;28;20409;-78
2020/12/25 08:42:09;;;;;;;33.33;15.48;;;;;;;8.96;62.80;93591.16;5014689;28;20040;-78
2020/12/25 08:44:36;;;;;;;29.48;14.23;;;;;;;9.05;62.88;93586.63;5012776;28;20074;-78
2020/12/25 08:47:08;;;;;;;28.45;14.10;;;;;;;9.15;62.75;93580.22;5012917;28;20036;-78
2020/12/25 08:49:34;;;;;;;26.73;13.65;;;;;;;9.25;62.18;93574.63;5012727;28;20029;-78
2020/12/25 08:52:00;;;;;;;33.22;14.50;;;;;;;9.33;62.42;93583.69;5012858;28;20528;-78
2020/12/25 08:54:30;;;;;;;29.77;14.52;;;;;;;9.38;62.76;93591.53;5012548;28;20513;-78
2020/12/25 08:56:56;;;;;;;34.63;13.73;;;;;;;9.43;62.07;93591.38;5012838;28;20061;-77
2020/12/25 08:59:22;;;;;;;33.83;15.35;;;;;;;9.38;62.48;93583.53;5013840;28;20030;-77
2020/12/25 09:01:49;;;;;;;25.30;13.60;;;;;;;9.37;62.66;93563.38;5013798;28;20064;-78
2020/12/25 09:04:18;;;;;;;28.63;13.38;;;;;;;9.44;62.70;93566.34;5013606;28;20037;-78
2020/12/25 09:06:44;;;;;;;31.45;13.32;;;;;;;9.51;62.27;93549.91;5012146;28;20026;-78
2020/12/25 09:09:10;;;;;;;37.78;15.57;;;;;;;9.56;62.23;93545.19;4974620;28;20030;-78
2020/12/25 09:11:36;;;;;;;34.30;14.38;;;;;;;9.58;62.20;93526.28;4994678;28;20457;-78
2020/12/25 09:14:02;;;;;;;26.40;14.25;;;;;;;9.63;62.12;93520.81;5012305;28;20030;-78
2020/12/25 09:16:27;;;;;;;30.05;13.88;;;;;;;9.67;61.39;93524.41;5013466;28;20052;-78
2020/12/25 09:18:53;;;;;;;26.48;13.82;;;;;;;9.72;61.40;93532.22;5012449;28;20030;-78
2020/12/25 09:21:19;;;;;;;27.17;11.68;;;;;;;9.77;61.22;93528.59;5012126;28;20072;-78
2020/12/25 09:23:44;;;;;;;32.50;12.77;;;;;;;9.82;60.68;93537.19;5013625;28;20034;-78
2020/12/25 09:26:12;;;;;;;19.98;10.80;;;;;;;9.91;59.80;93509.78;5013558;28;20029;-78
2020/12/25 09:28:38;;;;;;;23.33;10.40;;;;;;;9.95;59.72;93511.50;5013380;28;20033;-78
2020/12/25 09:31:05;;;;;;;27.90;10.00;;;;;;;10.04;59.38;93511.50;5011918;28;20022;-75
2020/12/25 09:33:31;;;;;;;27.52;11.05;;;;;;;10.07;59.61;93516.16;5011313;28;20029;-76
2020/12/25 09:35:56;;;;;;;23.08;10.77;;;;;;;10.11;58.93;93516.31;5011414;28;20034;-76
2020/12/25 09:38:22;;;;;;;21.98;10.30;;;;;;;10.15;58.88;93502.03;5011219;28;20030;-76
2020/12/25 09:40:52;;;;;;;14.50;8.30;;;;;;;10.20;58.46;93498.44;5010704;28;20041;-77
2020/12/25 09:43:18;;;;;;;17.40;6.65;;;;;;;10.27;56.95;93498.72;5011276;28;20053;-76
2020/12/25 09:45:45;;;;;;;14.10;7.10;;;;;;;10.33;56.99;93499.34;5011183;28;20022;-76
2020/12/25 09:48:11;;;;;;;17.95;7.13;;;;;;;10.36;55.95;93498.69;5012583;28;20038;-76
2020/12/25 09:50:37;;;;;;;17.42;7.25;;;;;;;10.43;54.90;93493.66;5011120;28;20036;-76
2020/12/25 09:53:03;;;;;;;11.88;5.97;;;;;;;10.47;55.21;93486.59;5011201;28;20489;-76
2020/12/25 09:55:29;;;;;;;10.95;6.55;;;;;;;10.52;55.33;93494.44;5012263;28;20038;-76
2020/12/25 09:57:54;;;;;;;19.10;7.45;;;;;;;10.59;55.58;93488.59;5010881;28;20022;-76
2020/12/25 10:00:20;;;;;;;15.10;6.57;;;;;;;10.64;55.14;93470.53;5010847;28;20057;-76
2020/12/25 10:02:45;;;;;;;11.68;6.60;;;;;;;10.72;54.96;93482.22;5012127;28;20042;-75
2020/12/25 10:05:12;;;;;;;13.75;6.68;;;;;;;10.79;55.07;93463.06;5010846;28;20038;-74
2020/12/25 10:07:39;;;;;;;11.93;6.25;;;;;;;10.82;55.08;93479.19;5012080;28;20141;-74
2020/12/25 10:10:06;;;;;;;13.85;6.47;;;;;;;10.90;54.12;93474.91;5010461;28;20033;-75
2020/12/25 10:12:32;;;;;;;14.57;6.15;;;;;;;10.94;53.97;93467.81;5010477;28;20062;-75
2020/12/25 10:14:57;;;;;;;14.45;7.10;;;;;;;10.99;54.34;93456.16;5012020;28;20557;-75
2020/12/25 10:17:23;;;;;;;16.80;6.93;;;;;;;11.07;54.55;93444.66;5010649;28;20382;-75
2020/12/25 10:19:48;;;;;;;15.00;6.85;;;;;;;11.16;54.18;93445.38;5011862;28;20054;-75
2020/12/25 10:22:14;;;;;;;17.67;7.38;;;;;;;11.24;53.89;93441.09;5011774;28;20108;-75
2020/12/25 10:24:39;;;;;;;13.40;6.72;;;;;;;11.26;53.17;93435.44;5010535;28;20032;-74
2020/12/25 10:27:05;;;;;;;20.30;8.27;;;;;;;11.03;53.79;93435.75;5010487;28;20041;-75
2020/12/25 10:29:31;;;;;;;19.85;8.05;;;;;;;10.96;53.81;93428.28;5010484;28;20107;-75
2020/12/25 10:31:56;;;;;;;23.08;7.97;;;;;;;11.11;54.18;93428.78;5010406;28;20030;-75
2020/12/25 10:34:22;;;;;;;14.50;6.00;;;;;;;11.22;54.23;93421.97;5011439;28;20516;-75
2020/12/25 10:36:48;;;;;;;11.95;6.20;;;;;;;11.32;53.59;93421.56;5010254;28;20034;-75
2020/12/25 10:39:14;;;;;;;11.98;6.82;;;;;;;11.40;54.11;93411.94;5010469;28;20038;-75
2020/12/25 10:41:40;;;;;;;13.43;6.82;;;;;;;11.49;53.89;93417.16;5010350;28;20168;-75
2020/12/25 10:44:07;;;;;;;14.63;6.93;;;;;;;11.60;52.57;93419.09;5009984;28;20137;-75
2020/12/25 10:46:33;;;;;;;16.75;7.38;;;;;;;11.65;52.43;93429.56;5010449;28;20041;-75
2020/12/25 10:48:58;;;;;;;14.32;7.00;;;;;;;11.64;52.61;93411.19;5009974;28;20041;-75
2020/12/25 10:51:24;;;;;;;17.38;7.18;;;;;;;11.68;52.95;93403.31;5010319;28;20414;-75
2020/12/25 10:53:50;;;;;;;13.02;6.95;;;;;;;11.66;51.72;93395.63;5010290;28;20025;-76
2020/12/25 10:56:23;;;;;;;12.65;5.97;;;;;;;11.65;51.71;93423.44;5011493;28;20552;-75
2020/12/25 10:58:49;;;;;;;12.68;6.70;;;;;;;11.70;50.78;93393.84;5011272;28;20029;-75
2020/12/25 11:01:27;;;;;;;11.50;6.63;;;;;;;11.71;51.93;93406.09;5011284;28;20022;-75
2020/12/25 11:03:54;;;;;;;12.88;7.03;;;;;;;11.78;51.43;93400.22;5011244;28;20033;-75
2020/12/25 11:06:28;;;;;;;16.40;6.95;;;;;;;11.88;51.78;93393.66;5009940;28;20171;-75
2020/12/25 11:08:54;;;;;;;17.77;7.22;;;;;;;11.96;51.46;93393.59;5009584;28;20034;-75
2020/12/25 11:11:40;;;;;;;20.52;7.40;;;;;;;12.07;50.53;93393.94;5011011;28;20082;-75
2020/12/25 11:14:06;;;;;;;21.85;9.13;;;;;;;11.93;50.38;93391.59;5009446;28;20026;-76
2020/12/25 11:16:34;;;;;;;28.35;8.52;;;;;;;11.79;51.09;93378.53;5010935;28;20050;-75
2020/12/25 11:19:00;;;;;;;16.48;8.48;;;;;;;11.74;51.98;93376.06;5009492;28;20045;-75
2020/12/25 11:21:28;;;;;;;24.33;8.82;;;;;;;11.78;52.10;93381.53;5010906;28;20520;-75
2020/12/25 11:23:55;;;;;;;19.35;8.63;;;;;;;11.82;51.29;93367.19;5009563;28;20466;-75
2020/12/25 11:26:31;;;;;;;13.82;7.47;;;;;;;11.99;51.66;93363.56;5009500;28;20131;-75
2020/12/25 11:28:59;;;;;;;16.10;7.70;;;;;;;12.13;51.40;93365.09;5010826;28;20123;-75